createdAt,value
2023-03-18T00:00:52.150Z,7.40
2023-03-18T00:02:25.558Z,8.00
2023-03-18T00:03:58.684Z,8.37
2023-03-18T00:05:31.992Z,7.33
2023-03-18T00:07:05.069Z,9.80
2023-03-18T00:08:40.234Z,7.10
2023-03-18T00:10:12.676Z,8.63
2023-03-18T00:11:46.147Z,10.33
2023-03-18T00:13:19.512Z,8.17
2023-03-18T00:14:52.927Z,8.63
2023-03-18T00:16:27.218Z,8.70
2023-03-18T00:18:00.446Z,7.03
2023-03-18T00:19:33.735Z,11.93
2023-03-18T00:21:07.222Z,9.13
2023-03-18T00:22:42.098Z,8.47
2023-03-18T00:24:16.748Z,8.77
2023-03-18T00:25:53.044Z,9.23
2023-03-18T00:27:26.102Z,8.23
2023-03-18T00:29:00.044Z,8.03
2023-03-18T00:30:33.115Z,8.23
2023-03-18T00:32:07.252Z,9.50
2023-03-18T00:33:43.605Z,7.60
2023-03-18T00:35:16.578Z,7.07
2023-03-18T00:36:51.005Z,8.20
2023-03-18T00:38:24.781Z,8.33
2023-03-18T00:40:04.827Z,7.60
2023-03-18T00:41:38.113Z,8.40
2023-03-18T00:43:12.799Z,9.93
2023-03-18T00:44:46.988Z,9.20
2023-03-18T00:46:22.337Z,8.33
2023-03-18T00:47:55.488Z,8.90
2023-03-18T00:49:28.587Z,10.43
2023-03-18T00:51:00.700Z,9.57
2023-03-18T00:52:33.823Z,10.10
2023-03-18T00:54:09.691Z,9.37
2023-03-18T00:55:45.364Z,6.17
2023-03-18T00:57:18.511Z,9.23
2023-03-18T00:58:52.666Z,7.43
2023-03-18T01:00:26.584Z,6.93
2023-03-18T01:01:59.683Z,6.73
2023-03-18T01:03:33.881Z,9.40
2023-03-18T01:05:07.181Z,9.07
2023-03-18T01:06:40.765Z,10.57
2023-03-18T01:08:14.614Z,8.23
2023-03-18T01:09:48.133Z,8.03
2023-03-18T01:11:22.907Z,10.43
2023-03-18T01:12:56.053Z,9.93
2023-03-18T01:14:29.935Z,9.87
2023-03-18T01:16:03.383Z,10.73
2023-03-18T01:17:36.624Z,7.50
2023-03-18T01:19:09.768Z,9.07
2023-03-18T01:20:44.586Z,8.83
2023-03-18T01:22:19.681Z,8.30
2023-03-18T01:23:56.052Z,7.37
2023-03-18T01:25:29.878Z,8.30
2023-03-18T01:27:04.522Z,9.70
2023-03-18T01:28:37.522Z,10.00
2023-03-18T01:30:14.434Z,11.53
2023-03-18T01:31:48.234Z,9.80
2023-03-18T01:33:21.982Z,7.47
2023-03-18T01:34:55.094Z,8.53
2023-03-18T01:36:28.544Z,10.40
2023-03-18T01:38:10.753Z,7.80
2023-03-18T01:39:44.818Z,8.80
2023-03-18T01:41:24.413Z,8.73
2023-03-18T01:43:01.556Z,7.87
2023-03-18T01:44:38.641Z,7.87
2023-03-18T01:46:32.749Z,8.77
2023-03-18T01:48:07.517Z,6.60
2023-03-18T01:49:44.610Z,8.17
2023-03-18T01:51:16.743Z,8.73
2023-03-18T01:52:52.906Z,8.53
2023-03-18T01:54:28.223Z,7.33
2023-03-18T01:56:01.900Z,8.80
2023-03-18T01:57:35.814Z,8.07
2023-03-18T01:59:12.218Z,10.17
2023-03-18T02:00:51.344Z,10.57
2023-03-18T02:02:25.299Z,8.97
2023-03-18T02:03:59.922Z,8.13
2023-03-18T02:05:33.659Z,12.47
2023-03-18T02:07:07.850Z,7.73
2023-03-18T02:08:41.668Z,7.77
2023-03-18T02:10:19.146Z,9.20
2023-03-18T02:13:27.561Z,10.27
2023-03-18T02:15:02.672Z,7.40
2023-03-18T02:16:43.462Z,8.80
2023-03-18T02:18:20.510Z,7.13
2023-03-18T02:20:04.146Z,9.47
2023-03-18T02:21:50.915Z,9.23
2023-03-18T02:23:33.452Z,7.73
2023-03-18T02:25:21.946Z,9.33
2023-03-18T02:27:00.608Z,7.67
2023-03-18T02:28:44.070Z,9.03
2023-03-18T02:30:20.941Z,9.10
2023-03-18T02:31:57.302Z,8.97
2023-03-18T02:33:34.778Z,8.20
2023-03-18T02:35:10.991Z,8.27
2023-03-18T02:36:45.942Z,8.53
2023-03-18T02:38:19.518Z,9.93
2023-03-18T02:39:53.390Z,7.80
2023-03-18T02:41:28.618Z,7.17
2023-03-18T02:43:19.334Z,11.67
2023-03-18T02:44:59.546Z,8.70
2023-03-18T02:46:55.622Z,8.13
2023-03-18T02:48:33.289Z,8.07
2023-03-18T02:50:06.994Z,7.80
2023-03-18T02:51:41.892Z,8.37
2023-03-18T02:53:15.684Z,9.87
2023-03-18T02:54:49.180Z,8.97
2023-03-18T02:56:21.451Z,7.90
2023-03-18T02:57:54.566Z,9.00
2023-03-18T02:59:27.933Z,8.40
2023-03-18T03:01:03.564Z,8.83
2023-03-18T03:02:37.134Z,8.80
2023-03-18T03:04:10.550Z,7.47
2023-03-18T03:05:43.789Z,8.17
2023-03-18T03:07:16.163Z,7.57
2023-03-18T03:08:54.080Z,8.90
2023-03-18T03:10:27.263Z,7.87
2023-03-18T03:12:00.916Z,8.77
2023-03-18T03:13:33.702Z,8.40
2023-03-18T03:15:08.238Z,7.73
2023-03-18T03:16:44.787Z,9.33
2023-03-18T03:18:18.532Z,8.63
2023-03-18T03:19:52.076Z,7.43
2023-03-18T03:21:24.240Z,8.40
2023-03-18T03:22:57.325Z,9.13
2023-03-18T03:24:30.555Z,7.80
2023-03-18T03:26:04.196Z,6.97
2023-03-18T03:27:37.938Z,10.03
2023-03-18T03:29:12.908Z,8.23
2023-03-18T03:30:46.295Z,8.37
2023-03-18T03:32:21.134Z,7.67
2023-03-18T03:33:55.684Z,7.70
2023-03-18T03:35:28.362Z,7.37
2023-03-18T03:37:01.576Z,9.43
2023-03-18T03:38:33.723Z,7.47
2023-03-18T03:40:08.214Z,9.37
2023-03-18T03:41:41.484Z,9.10
2023-03-18T03:43:14.426Z,9.53
2023-03-18T03:44:48.036Z,8.63
2023-03-18T03:46:20.308Z,7.73
2023-03-18T03:47:54.930Z,7.90
2023-03-18T03:49:28.198Z,8.37
2023-03-18T03:51:03.180Z,7.47
2023-03-18T03:52:35.302Z,8.63
2023-03-18T03:54:08.838Z,8.60
2023-03-18T03:55:41.237Z,10.63
2023-03-18T03:57:14.538Z,7.40
2023-03-18T03:58:47.749Z,10.40
2023-03-18T04:00:23.141Z,8.57
2023-03-18T04:01:55.794Z,7.80
2023-03-18T04:03:32.603Z,9.70
2023-03-18T04:05:06.336Z,10.20
2023-03-18T04:06:39.446Z,7.10
2023-03-18T04:08:12.525Z,8.00
2023-03-18T04:09:44.884Z,8.37
2023-03-18T04:11:18.051Z,9.70
2023-03-18T04:12:50.906Z,7.63
2023-03-18T04:14:23.960Z,10.00
2023-03-18T04:15:57.120Z,10.43
2023-03-18T04:17:29.371Z,9.43
2023-03-18T04:19:03.807Z,8.73
2023-03-18T04:20:37.977Z,9.13
2023-03-18T04:22:18.383Z,7.90
2023-03-18T04:23:51.642Z,11.13
2023-03-18T04:25:24.870Z,9.57
2023-03-18T04:26:59.415Z,10.50
2023-03-18T04:28:32.965Z,7.93
2023-03-18T04:30:06.836Z,8.10
2023-03-18T04:31:47.921Z,8.17
2023-03-18T04:33:21.163Z,6.97
2023-03-18T04:34:55.761Z,9.17
2023-03-18T04:36:29.252Z,8.00
2023-03-18T04:38:01.786Z,7.80
2023-03-18T04:39:34.862Z,9.77
2023-03-18T04:41:08.707Z,8.93
2023-03-18T04:42:42.002Z,8.10
2023-03-18T04:44:17.314Z,9.13
2023-03-18T04:45:56.584Z,10.07
2023-03-18T04:47:29.654Z,7.90
2023-03-18T04:49:03.062Z,12.27
2023-03-18T04:50:36.914Z,9.33
2023-03-18T04:52:13.118Z,8.20
2023-03-18T04:53:46.561Z,8.80
2023-03-18T04:55:21.300Z,8.63
2023-03-18T04:56:54.808Z,8.43
2023-03-18T04:58:28.808Z,9.30
2023-03-18T05:00:18.057Z,10.30
2023-03-18T05:01:52.593Z,9.03
2023-03-18T05:03:25.979Z,9.00
2023-03-18T05:05:00.733Z,7.60
2023-03-18T05:06:34.326Z,9.80
2023-03-18T05:08:12.844Z,9.73
2023-03-18T05:09:45.994Z,10.20
2023-03-18T05:11:19.934Z,7.43
2023-03-18T05:12:53.053Z,8.33
2023-03-18T05:14:34.058Z,10.80
2023-03-18T05:16:06.978Z,8.87
2023-03-18T05:17:40.920Z,10.77
2023-03-18T05:19:14.542Z,7.50
2023-03-18T05:20:55.281Z,7.50
2023-03-18T05:22:28.762Z,9.43
2023-03-18T05:24:11.196Z,11.03
2023-03-18T05:25:49.560Z,10.27
2023-03-18T05:27:23.830Z,9.93
2023-03-18T05:29:18.339Z,9.13
2023-03-18T05:31:14.769Z,10.37
2023-03-18T05:32:48.787Z,8.30
2023-03-18T05:34:23.021Z,9.90
2023-03-18T05:35:56.861Z,9.60
2023-03-18T05:37:36.919Z,8.17
2023-03-18T05:39:13.643Z,9.40
2023-03-18T05:40:45.862Z,7.47
2023-03-18T05:42:25.960Z,7.93
2023-03-18T05:43:59.539Z,8.63
2023-03-18T05:45:34.198Z,8.17
2023-03-18T05:47:07.636Z,9.20
2023-03-18T05:48:49.497Z,8.57
2023-03-18T05:50:30.878Z,9.67
2023-03-18T05:52:05.298Z,8.43
2023-03-18T05:53:45.747Z,7.97
2023-03-18T05:55:26.266Z,9.10
2023-03-18T05:56:59.608Z,9.70
2023-03-18T05:58:31.751Z,7.60
2023-03-18T06:00:21.783Z,9.27
2023-03-18T06:01:55.671Z,11.70
2023-03-18T06:03:29.804Z,12.83
2023-03-18T06:05:02.036Z,8.47
2023-03-18T06:06:35.977Z,9.83
2023-03-18T06:08:09.387Z,10.03
2023-03-18T06:09:45.406Z,8.73
2023-03-18T06:11:18.551Z,9.47
2023-03-18T06:12:51.982Z,8.10
2023-03-18T06:14:29.202Z,12.17
2023-03-18T06:16:06.321Z,10.80
2023-03-18T06:17:40.308Z,8.87
2023-03-18T06:19:14.582Z,13.50
2023-03-18T06:20:48.237Z,11.47
2023-03-18T06:22:22.412Z,11.07
2023-03-18T06:23:57.550Z,8.23
2023-03-18T06:25:33.631Z,11.00
2023-03-18T06:27:07.006Z,9.77
2023-03-18T06:28:41.106Z,8.30
2023-03-18T06:30:18.199Z,8.00
2023-03-18T06:31:52.432Z,9.00
2023-03-18T06:33:30.542Z,10.87
2023-03-18T06:35:03.102Z,9.43
2023-03-18T06:36:37.793Z,8.17
2023-03-18T06:38:15.656Z,9.37
2023-03-18T06:39:49.393Z,6.80
2023-03-18T06:41:24.729Z,8.70
2023-03-18T06:43:20.692Z,9.60
2023-03-18T06:44:54.744Z,7.83
2023-03-18T06:46:34.066Z,7.53
2023-03-18T06:48:09.558Z,8.20
2023-03-18T06:49:47.034Z,9.27
2023-03-18T06:51:24.683Z,8.60
2023-03-18T06:52:58.003Z,8.97
2023-03-18T06:54:34.517Z,8.70
2023-03-18T06:56:09.765Z,9.67
2023-03-18T06:57:58.047Z,10.17
2023-03-18T06:59:38.123Z,9.97
2023-03-18T07:01:12.495Z,9.23
2023-03-18T07:02:47.215Z,10.90
2023-03-18T07:04:23.823Z,8.83
2023-03-18T07:05:57.921Z,8.27
2023-03-18T07:07:31.325Z,8.00
2023-03-18T07:09:04.927Z,8.73
2023-03-18T07:10:38.322Z,10.17
2023-03-18T07:12:16.507Z,10.63
2023-03-18T07:13:51.253Z,7.83
2023-03-18T07:15:32.355Z,8.57
2023-03-18T07:17:06.732Z,9.77
2023-03-18T07:18:40.554Z,11.70
2023-03-18T07:20:15.321Z,11.57
2023-03-18T07:21:49.575Z,7.57
2023-03-18T07:23:22.941Z,8.53
2023-03-18T07:24:55.163Z,8.77
2023-03-18T07:26:28.363Z,8.63
2023-03-18T07:28:01.597Z,9.63
2023-03-18T07:29:36.173Z,10.53
2023-03-18T07:31:09.762Z,7.77
2023-03-18T07:32:43.069Z,6.50
2023-03-18T07:34:17.745Z,7.50
2023-03-18T07:35:51.153Z,8.63
2023-03-18T07:37:24.250Z,8.23
2023-03-18T07:38:57.838Z,8.20
2023-03-18T07:40:30.886Z,6.73
2023-03-18T07:42:04.155Z,11.03
2023-03-18T07:43:39.998Z,8.70
2023-03-18T07:45:14.476Z,9.20
2023-03-18T07:46:47.594Z,9.47
2023-03-18T07:48:20.903Z,8.30
2023-03-18T07:49:54.000Z,6.90
2023-03-18T07:51:27.340Z,6.83
2023-03-18T07:53:00.864Z,7.43
2023-03-18T07:54:33.904Z,9.47
2023-03-18T07:56:08.293Z,8.73
2023-03-18T07:57:41.806Z,9.93
2023-03-18T07:59:18.215Z,9.33
2023-03-18T08:00:54.034Z,10.90
2023-03-18T08:02:28.036Z,8.83
2023-03-18T08:04:01.165Z,11.10
2023-03-18T08:05:35.042Z,10.50
2023-03-18T08:07:08.627Z,8.60
2023-03-18T08:08:41.931Z,9.10
2023-03-18T08:10:15.954Z,8.20
2023-03-18T08:11:50.051Z,9.87
2023-03-18T08:13:23.102Z,8.17
2023-03-18T08:14:56.497Z,9.07
2023-03-18T08:16:31.176Z,7.93
2023-03-18T08:18:05.242Z,8.03
2023-03-18T08:19:39.519Z,8.17
2023-03-18T08:21:13.534Z,7.97
2023-03-18T08:22:47.010Z,8.90
2023-03-18T08:24:20.103Z,9.00
2023-03-18T08:25:53.598Z,7.83
2023-03-18T08:27:26.928Z,12.07
2023-03-18T08:29:00.105Z,9.70
2023-03-18T08:30:33.152Z,8.30
2023-03-18T08:32:08.197Z,9.23
2023-03-18T08:33:42.487Z,11.33
2023-03-18T08:35:15.797Z,10.40
2023-03-18T08:36:48.874Z,7.03
2023-03-18T08:38:22.251Z,10.60
2023-03-18T08:39:55.649Z,8.23
2023-03-18T08:41:28.804Z,8.63
2023-03-18T08:43:02.034Z,9.50
2023-03-18T08:44:35.370Z,14.33
2023-03-18T08:46:08.572Z,10.03
2023-03-18T08:47:43.036Z,8.97
2023-03-18T08:49:16.117Z,7.87
2023-03-18T08:50:49.511Z,9.10
2023-03-18T08:52:22.541Z,10.13
2023-03-18T08:53:55.988Z,9.03
2023-03-18T08:55:31.886Z,9.30
2023-03-18T08:57:05.727Z,10.57
2023-03-18T08:58:38.819Z,10.37
2023-03-18T09:00:13.427Z,10.03
2023-03-18T09:01:46.453Z,8.03
2023-03-18T09:03:21.586Z,10.53
2023-03-18T09:04:55.692Z,9.63
2023-03-18T09:06:30.254Z,8.00
2023-03-18T09:08:02.448Z,9.07
2023-03-18T09:09:43.715Z,9.60
2023-03-18T09:11:17.905Z,7.53
2023-03-18T09:12:51.049Z,9.47
2023-03-18T09:14:24.146Z,8.07
2023-03-18T09:15:57.273Z,6.60
2023-03-18T09:17:46.863Z,9.07
2023-03-18T09:19:25.187Z,8.07
2023-03-18T09:20:58.321Z,8.97
2023-03-18T09:22:31.471Z,8.57
2023-03-18T09:24:07.106Z,9.27
2023-03-18T09:25:42.559Z,7.70
2023-03-18T09:27:15.706Z,8.60
2023-03-18T09:28:48.837Z,8.73
2023-03-18T09:30:22.789Z,8.13
2023-03-18T09:31:56.227Z,7.87
2023-03-18T09:33:29.308Z,7.53
2023-03-18T09:35:03.929Z,7.43
2023-03-18T09:36:37.279Z,8.93
2023-03-18T09:38:14.345Z,9.40
2023-03-18T09:39:48.864Z,10.03
2023-03-18T09:41:31.025Z,8.13
2023-03-18T09:43:21.066Z,9.23
2023-03-18T09:44:58.269Z,8.30
2023-03-18T09:46:44.830Z,8.90
2023-03-18T09:48:38.984Z,9.87
2023-03-18T09:50:29.133Z,8.83
2023-03-18T09:52:11.904Z,9.50
2023-03-18T09:53:50.998Z,9.87
2023-03-18T09:55:30.272Z,12.60
2023-03-18T09:57:05.010Z,9.13
2023-03-18T09:58:48.552Z,10.43
2023-03-18T10:00:26.015Z,9.10
2023-03-18T10:02:00.249Z,9.00
2023-03-18T10:03:38.486Z,11.13
2023-03-18T10:05:15.564Z,10.73
2023-03-18T10:06:54.461Z,10.00
2023-03-18T10:08:43.122Z,7.63
2023-03-18T10:10:24.253Z,8.10
2023-03-18T10:12:05.883Z,8.20
2023-03-18T10:13:45.209Z,9.73
2023-03-18T10:15:22.230Z,10.33
2023-03-18T10:17:09.286Z,9.20
2023-03-18T10:18:44.833Z,7.37
2023-03-18T10:20:21.032Z,8.60
2023-03-18T10:22:19.077Z,8.40
2023-03-18T10:23:59.236Z,9.00
2023-03-18T10:25:37.476Z,9.97
2023-03-18T10:27:19.133Z,9.50
2023-03-18T10:29:04.603Z,9.00
2023-03-18T10:30:49.711Z,8.80
2023-03-18T10:32:49.122Z,10.67
2023-03-18T10:34:27.908Z,10.60
2023-03-18T10:36:06.563Z,8.97
2023-03-18T10:37:52.411Z,8.73
2023-03-18T10:39:28.363Z,9.57
2023-03-18T10:41:02.432Z,13.27
2023-03-18T10:42:38.704Z,9.07
2023-03-18T10:44:19.128Z,7.73
2023-03-18T10:46:02.878Z,8.47
2023-03-18T10:47:40.945Z,7.10
2023-03-18T10:49:17.672Z,7.70
2023-03-18T10:50:57.740Z,6.67
2023-03-18T10:52:37.361Z,6.87
2023-03-18T10:54:17.825Z,8.37
2023-03-18T10:55:58.666Z,9.20
2023-03-18T10:57:32.602Z,7.77
2023-03-18T10:59:13.136Z,8.53
2023-03-18T11:00:46.224Z,7.67
2023-03-18T11:02:23.917Z,9.70
2023-03-18T11:04:03.368Z,7.90
2023-03-18T11:05:38.769Z,9.87
2023-03-18T11:07:18.721Z,7.47
2023-03-18T11:09:00.606Z,8.27
2023-03-18T11:10:37.066Z,9.53
2023-03-18T11:12:19.095Z,9.63
2023-03-18T11:13:53.555Z,7.17
2023-03-18T11:15:26.673Z,10.30
2023-03-18T11:17:01.676Z,8.80
2023-03-18T11:18:34.787Z,9.23
2023-03-18T11:20:21.059Z,9.53
2023-03-18T11:22:06.876Z,7.57
2023-03-18T11:23:48.962Z,8.53
2023-03-18T11:25:26.443Z,8.00
2023-03-18T11:27:00.890Z,11.57
2023-03-18T11:28:34.454Z,9.27
2023-03-18T11:30:33.074Z,9.77
2023-03-18T11:32:23.919Z,10.17
2023-03-18T11:33:58.860Z,9.57
2023-03-18T11:35:37.951Z,10.53
2023-03-18T11:37:13.030Z,8.47
2023-03-18T11:38:57.922Z,10.93
2023-03-18T11:40:32.428Z,9.27
2023-03-18T11:42:20.158Z,8.87
2023-03-18T11:43:56.898Z,9.10
2023-03-18T11:45:44.198Z,8.80
2023-03-18T11:47:24.119Z,10.67
2023-03-18T11:48:58.265Z,9.40
2023-03-18T11:50:41.633Z,11.30
2023-03-18T11:52:33.482Z,10.40
2023-03-18T11:54:44.321Z,12.07
2023-03-18T11:56:28.397Z,11.07
2023-03-18T11:58:31.338Z,10.07
2023-03-18T12:00:17.318Z,12.67
2023-03-18T12:02:01.303Z,10.80
2023-03-18T12:04:04.288Z,12.90
2023-03-18T12:06:00.111Z,10.27
2023-03-18T12:07:53.019Z,11.10
2023-03-18T12:09:31.517Z,11.80
2023-03-18T12:11:13.914Z,11.97
2023-03-18T12:12:59.582Z,11.77
2023-03-18T12:14:41.736Z,11.17
2023-03-18T12:16:22.450Z,14.30
2023-03-18T12:18:03.204Z,13.57
2023-03-18T12:19:50.712Z,11.40
2023-03-18T12:21:41.973Z,11.37
2023-03-18T12:23:37.470Z,12.47
2023-03-18T12:25:31.528Z,10.17
2023-03-18T12:27:13.649Z,13.87
2023-03-18T12:28:57.761Z,11.40
2023-03-18T12:30:53.527Z,9.60
2023-03-18T12:32:32.235Z,11.73
2023-03-18T12:34:14.990Z,10.03
2023-03-18T12:35:59.606Z,11.43
2023-03-18T12:37:45.045Z,10.53
2023-03-18T12:39:47.827Z,11.50
2023-03-18T12:41:25.630Z,11.47
2023-03-18T12:43:23.798Z,10.33
2023-03-18T12:45:00.902Z,10.53
2023-03-18T12:46:40.488Z,12.10
2023-03-18T12:48:17.663Z,11.10
2023-03-18T12:49:53.593Z,12.40
2023-03-18T12:51:32.079Z,13.23
2023-03-18T12:53:11.066Z,14.53
2023-03-18T12:54:49.836Z,12.33
2023-03-18T12:56:25.818Z,12.13
2023-03-18T12:58:04.004Z,12.90
2023-03-18T12:59:42.490Z,11.73
2023-03-18T13:01:20.021Z,14.97
2023-03-18T13:03:06.918Z,11.97
2023-03-18T13:04:44.692Z,11.20
2023-03-18T13:06:23.502Z,12.40
2023-03-18T13:08:26.840Z,14.80
2023-03-18T13:10:06.119Z,13.97
2023-03-18T13:11:55.797Z,10.57
2023-03-18T13:13:31.664Z,12.30
2023-03-18T13:15:12.707Z,12.60
2023-03-18T13:16:46.886Z,16.13
2023-03-18T13:18:27.232Z,14.33
2023-03-18T13:20:03.299Z,12.53
2023-03-18T13:21:44.047Z,12.63
2023-03-18T13:23:39.625Z,14.67
2023-03-18T13:25:23.014Z,12.53
2023-03-18T13:27:19.981Z,12.77
2023-03-18T13:29:04.341Z,12.53
2023-03-18T13:30:53.945Z,13.50
2023-03-18T13:32:54.831Z,12.10
2023-03-18T13:35:12.741Z,13.57
2023-03-18T13:37:15.547Z,13.47
2023-03-18T13:39:06.602Z,15.17
2023-03-18T13:41:12.536Z,14.17
2023-03-18T13:42:46.997Z,15.43
2023-03-18T13:44:24.983Z,14.53
2023-03-18T13:46:00.213Z,14.50
2023-03-18T13:47:37.712Z,14.03
2023-03-18T13:49:21.808Z,13.43
2023-03-18T13:50:57.498Z,12.90
2023-03-18T13:52:36.880Z,11.63
2023-03-18T13:54:18.466Z,15.37
2023-03-18T13:56:01.871Z,13.23
2023-03-18T13:57:48.456Z,15.87
2023-03-18T13:59:44.349Z,13.87
2023-03-18T14:01:33.405Z,13.83
2023-03-18T14:03:21.777Z,11.53
2023-03-18T14:04:57.957Z,12.37
2023-03-18T14:06:53.752Z,15.00
2023-03-18T14:08:48.225Z,13.40
2023-03-18T14:10:22.004Z,14.57
2023-03-18T14:11:55.141Z,11.93
2023-03-18T14:13:29.975Z,15.63
2023-03-18T14:15:07.050Z,12.90
2023-03-18T14:16:53.404Z,12.03
2023-03-18T14:18:28.614Z,11.70
2023-03-18T14:20:28.836Z,15.30
2023-03-18T14:22:09.742Z,14.33
2023-03-18T14:23:45.269Z,14.33
2023-03-18T14:25:43.020Z,12.43
2023-03-18T14:27:20.252Z,13.70
2023-03-18T14:29:03.728Z,14.80
2023-03-18T14:30:50.361Z,15.73
2023-03-18T14:32:39.782Z,13.30
2023-03-18T14:34:54.652Z,13.27
2023-03-18T14:36:49.293Z,14.60
2023-03-18T14:38:25.917Z,16.70
2023-03-18T14:40:05.534Z,15.97
2023-03-18T14:41:45.854Z,12.07
2023-03-18T14:43:25.530Z,14.40
2023-03-18T14:45:06.589Z,14.27
2023-03-18T14:46:44.350Z,12.77
2023-03-18T14:48:21.860Z,12.97
2023-03-18T14:49:58.814Z,13.20
2023-03-18T14:51:32.769Z,14.30
2023-03-18T14:53:12.161Z,13.30
2023-03-18T14:54:46.070Z,16.07
2023-03-18T14:56:22.874Z,13.37
2023-03-18T14:57:56.649Z,13.43
2023-03-18T14:59:29.832Z,13.43
2023-03-18T15:01:06.926Z,14.20
2023-03-18T15:02:40.698Z,12.80
2023-03-18T15:04:19.689Z,12.70
2023-03-18T15:05:55.728Z,15.20
2023-03-18T15:07:35.424Z,15.00
2023-03-18T15:09:11.115Z,12.43
2023-03-18T15:10:44.559Z,15.07
2023-03-18T15:12:26.140Z,15.30
2023-03-18T15:14:00.456Z,14.63
2023-03-18T15:15:34.836Z,15.53
2023-03-18T15:17:16.178Z,14.87
2023-03-18T15:18:54.806Z,14.80
2023-03-18T15:20:37.286Z,13.77
2023-03-18T15:22:13.647Z,14.03
2023-03-18T15:23:50.135Z,15.57
2023-03-18T15:25:24.490Z,14.27
2023-03-18T15:26:59.113Z,14.80
2023-03-18T15:28:34.253Z,16.43
2023-03-18T15:30:22.950Z,17.50
2023-03-18T15:32:10.304Z,16.23
2023-03-18T15:33:43.980Z,14.60
2023-03-18T15:35:20.445Z,20.00
2023-03-18T15:36:55.937Z,19.33
2023-03-18T15:38:31.362Z,14.93
2023-03-18T15:40:30.014Z,17.00
2023-03-18T15:42:06.610Z,15.17
2023-03-18T15:43:45.848Z,17.77
2023-03-18T15:45:21.506Z,14.90
2023-03-18T15:46:55.980Z,14.97
2023-03-18T15:48:34.983Z,18.77
2023-03-18T15:50:26.150Z,15.20
2023-03-18T15:52:02.099Z,15.87
2023-03-18T15:53:43.796Z,17.40
2023-03-18T15:55:29.277Z,18.20
2023-03-18T15:57:12.522Z,14.83
2023-03-18T15:58:47.308Z,16.40
2023-03-18T16:00:21.044Z,16.77
2023-03-18T16:01:55.787Z,14.40
2023-03-18T16:03:31.797Z,16.77
2023-03-18T16:05:09.319Z,15.13
2023-03-18T16:06:42.381Z,16.00
2023-03-18T16:08:16.047Z,17.47
2023-03-18T16:09:49.314Z,17.57
2023-03-18T16:11:24.850Z,14.57
2023-03-18T16:13:03.960Z,17.43
2023-03-18T16:14:41.847Z,16.60
2023-03-18T16:16:22.090Z,16.57
2023-03-18T16:17:56.876Z,16.37
2023-03-18T16:19:30.218Z,16.60
2023-03-18T16:21:03.634Z,17.17
2023-03-18T16:22:36.655Z,16.80
2023-03-18T16:24:10.638Z,15.63
2023-03-18T16:25:45.245Z,19.20
2023-03-18T16:27:29.358Z,17.00
2023-03-18T16:29:03.870Z,17.43
2023-03-18T16:30:40.144Z,17.40
2023-03-18T16:32:14.429Z,16.43
2023-03-18T16:33:52.599Z,19.97
2023-03-18T16:35:27.669Z,19.47
2023-03-18T16:37:00.870Z,18.77
2023-03-18T16:38:34.873Z,18.40
2023-03-18T16:40:16.991Z,19.67
2023-03-18T16:41:50.080Z,20.93
2023-03-18T16:43:26.929Z,18.70
2023-03-18T16:44:59.978Z,19.83
2023-03-18T16:46:35.129Z,20.50
2023-03-18T16:48:09.012Z,20.37
2023-03-18T16:49:42.241Z,19.23
2023-03-18T16:51:15.284Z,19.70
2023-03-18T16:52:47.571Z,22.17
2023-03-18T16:54:22.544Z,18.97
2023-03-18T16:55:58.314Z,22.13
2023-03-18T16:57:31.599Z,20.97
2023-03-18T16:59:04.699Z,20.87
2023-03-18T17:00:38.165Z,23.10
2023-03-18T17:02:26.651Z,19.03
2023-03-18T17:03:59.952Z,19.10
2023-03-18T17:05:33.211Z,17.47
2023-03-18T17:07:06.809Z,20.20
2023-03-18T17:08:40.212Z,18.50
2023-03-18T17:10:15.374Z,20.37
2023-03-18T17:11:50.642Z,20.90
2023-03-18T17:13:25.933Z,20.70
2023-03-18T17:14:59.970Z,22.90
2023-03-18T17:16:33.901Z,18.17
2023-03-18T17:18:13.650Z,21.90
2023-03-18T17:19:46.691Z,20.00
2023-03-18T17:21:19.875Z,21.07
2023-03-18T17:22:53.474Z,19.60
2023-03-18T17:24:26.616Z,25.70
2023-03-18T17:26:02.927Z,22.57
2023-03-18T17:27:40.863Z,21.87
2023-03-18T17:29:21.802Z,22.53
2023-03-18T17:30:55.217Z,21.60
2023-03-18T17:32:28.542Z,20.07
2023-03-18T17:34:03.407Z,24.60
2023-03-18T17:35:36.971Z,20.37
2023-03-18T17:37:10.194Z,22.50
2023-03-18T17:38:43.367Z,20.73
2023-03-18T17:40:19.166Z,21.67
2023-03-18T17:41:52.249Z,21.37
2023-03-18T17:43:28.652Z,22.47
2023-03-18T17:45:07.239Z,21.97
2023-03-18T17:46:41.186Z,23.20
2023-03-18T17:48:20.333Z,22.20
2023-03-18T17:49:54.870Z,21.27
2023-03-18T17:51:28.068Z,18.87
2023-03-18T17:53:01.350Z,20.60
2023-03-18T17:54:34.392Z,21.40
2023-03-18T17:56:09.907Z,22.13
2023-03-18T17:57:43.796Z,20.90
2023-03-18T17:59:19.447Z,20.23
2023-03-18T18:00:53.976Z,21.90
2023-03-18T18:02:27.533Z,19.03
2023-03-18T18:04:01.803Z,19.67
2023-03-18T18:05:36.417Z,20.33
2023-03-18T18:07:18.063Z,21.70
2023-03-18T18:08:51.379Z,21.83
2023-03-18T18:10:26.978Z,23.33
2023-03-18T18:12:00.338Z,21.33
2023-03-18T18:13:33.673Z,20.67
2023-03-18T18:15:09.926Z,22.87
2023-03-18T18:16:43.643Z,24.47
2023-03-18T18:18:23.951Z,25.57
2023-03-18T18:19:57.391Z,22.93
2023-03-18T18:21:32.144Z,21.10
2023-03-18T18:23:05.403Z,20.03
2023-03-18T18:24:39.876Z,19.17
2023-03-18T18:26:15.445Z,22.27
2023-03-18T18:27:49.654Z,20.43
2023-03-18T18:29:25.297Z,22.07
2023-03-18T18:30:58.770Z,21.57
2023-03-18T18:32:31.865Z,23.07
2023-03-18T18:34:04.985Z,26.77
2023-03-18T18:35:38.059Z,21.27
2023-03-18T18:37:12.893Z,21.07
2023-03-18T18:38:45.951Z,22.83
2023-03-18T18:40:20.007Z,21.97
2023-03-18T18:41:53.144Z,21.20
2023-03-18T18:43:27.084Z,19.87
2023-03-18T18:45:01.325Z,20.27
2023-03-18T18:46:36.108Z,20.90
2023-03-18T18:48:13.776Z,20.90
2023-03-18T18:49:47.540Z,19.87
2023-03-18T18:51:22.443Z,23.30
2023-03-18T18:52:57.290Z,23.13
2023-03-18T18:54:30.788Z,21.87
2023-03-18T18:56:13.823Z,23.57
2023-03-18T18:57:47.005Z,23.37
2023-03-18T18:59:26.803Z,21.87
2023-03-18T19:01:00.440Z,24.27
2023-03-18T19:02:35.173Z,24.67
2023-03-18T19:04:14.541Z,21.63
2023-03-18T19:05:49.788Z,24.57
2023-03-18T19:07:24.700Z,22.13
2023-03-18T19:09:01.232Z,24.57
2023-03-18T19:10:34.609Z,21.97
2023-03-18T19:12:14.923Z,22.13
2023-03-18T19:13:48.869Z,21.37
2023-03-18T19:15:22.479Z,22.43
2023-03-18T19:16:58.886Z,22.40
2023-03-18T19:18:36.628Z,21.53
2023-03-18T19:20:28.222Z,22.20
2023-03-18T19:22:04.434Z,22.27
2023-03-18T19:23:37.738Z,24.43
2023-03-18T19:25:15.113Z,22.87
2023-03-18T19:26:48.175Z,23.00
2023-03-18T19:28:31.370Z,24.70
2023-03-18T19:30:17.254Z,25.47
2023-03-18T19:31:50.861Z,23.07
2023-03-18T19:33:24.556Z,24.27
2023-03-18T19:34:57.707Z,25.40
2023-03-18T19:36:32.573Z,25.70
2023-03-18T19:38:05.980Z,23.50
2023-03-18T19:39:39.137Z,25.97
2023-03-18T19:41:13.558Z,25.67
2023-03-18T19:42:46.608Z,25.33
2023-03-18T19:44:21.583Z,26.03
2023-03-18T19:45:54.839Z,25.67
2023-03-18T19:47:31.163Z,24.30
2023-03-18T19:49:04.296Z,24.63
2023-03-18T19:50:37.651Z,21.93
2023-03-18T19:52:19.036Z,23.70
2023-03-18T19:53:52.394Z,24.60
2023-03-18T19:55:25.655Z,25.17
2023-03-18T19:57:02.223Z,23.17
2023-03-18T19:58:35.898Z,27.23
2023-03-18T20:00:20.492Z,23.97
2023-03-18T20:01:53.783Z,23.40
2023-03-18T20:03:27.307Z,25.93
2023-03-18T20:05:02.153Z,20.90
2023-03-18T20:06:35.720Z,22.73
2023-03-18T20:08:08.791Z,20.33
2023-03-18T20:09:42.176Z,22.77
2023-03-18T20:11:16.852Z,22.43
2023-03-18T20:12:52.084Z,20.87
2023-03-18T20:14:27.376Z,21.40
2023-03-18T20:16:00.743Z,23.27
2023-03-18T20:17:38.509Z,21.97
2023-03-18T20:19:14.004Z,24.07
2023-03-18T20:20:50.200Z,23.20
2023-03-18T20:22:24.509Z,23.90
2023-03-18T20:24:04.948Z,25.03
2023-03-18T20:25:41.397Z,24.37
2023-03-18T20:27:14.518Z,22.43
2023-03-18T20:28:53.796Z,24.93
2023-03-18T20:30:30.091Z,22.63
2023-03-18T20:32:04.588Z,23.87
2023-03-18T20:33:38.162Z,24.77
2023-03-18T20:35:12.191Z,22.63
2023-03-18T20:36:45.587Z,23.47
2023-03-18T20:38:26.944Z,23.90
2023-03-18T20:40:00.115Z,24.70
2023-03-18T20:41:36.860Z,25.63
2023-03-18T20:43:14.170Z,23.70
2023-03-18T20:44:48.586Z,23.83
2023-03-18T20:46:25.315Z,24.77
2023-03-18T20:47:58.667Z,23.43
2023-03-18T20:49:31.739Z,22.10
2023-03-18T20:51:07.158Z,25.77
2023-03-18T20:52:43.034Z,22.13
2023-03-18T20:54:19.014Z,23.67
2023-03-18T20:55:52.610Z,25.20
2023-03-18T20:57:25.348Z,21.87
2023-03-18T20:58:58.622Z,21.90
2023-03-18T21:00:34.100Z,23.80
2023-03-18T21:02:27.848Z,22.10
2023-03-18T21:04:02.140Z,24.60
2023-03-18T21:05:35.454Z,22.13
2023-03-18T21:07:14.189Z,25.73
2023-03-18T21:08:47.299Z,24.63
2023-03-18T21:10:22.709Z,24.10
2023-03-18T21:11:55.800Z,30.00
2023-03-18T21:13:30.628Z,29.70